Nisshin Maru — JJCJ — position and weather

sailwx.info

Track history (hours):
 
Tides and Currents Weather Stations Pressure Air Temp Water Temp Dewpoint Dewpoint Depression Visibility Wind Speed Wind Dir Waves Ship Positions

Nisshin Maru

Last reported at 2018-May-17 16:21 UTC. Time now 2018-Aug-14 07:00 UTC.
Position N 33°51' E 134°55'.
Warning: this ship's position is months out of date.

Length 129 m; draft 6.7 m.

Type: Fishing. MMSI: 431683000.

Date/timePositionNaut miles runAvg speedWind from/ knotsBaromVisibWave heightAir tempDewpointWater temp
2018-May-17 16:21N 33°51' E 134°55'4 9.5
2018-May-17 15:56N 33°55' E 134°55'410.0
2018-May-17 15:30N 33°60' E 134°55'5 9.0
2018-May-17 15:01N 34°04' E 134°57'5 9.6
2018-May-17 14:31N 34°09' E 134°57'4 8.9
2018-May-17 14:00N 34°13' E 134°58'5 9.7
2018-May-17 13:30N 34°18' E 134°58'4 8.7
2018-May-17 13:00N 34°22' E 134°60'510.6
2018-May-17 12:30N 34°27' E 135°01'510.6
2018-May-17 12:00N 34°32' E 135°03'4 7.6
2018-May-17 11:30N 34°36' E 135°02'3 5.8
2018-May-17 11:00N 34°37' E 134°59'5 9.0
2018-May-17 10:30N 34°35' E 134°54'5 9.7
2018-May-17 10:01N 34°33' E 134°49'510.2
2018-May-17 09:29N 34°31' E 134°43'510.6
2018-May-17 09:00N 34°29' E 134°37'611.1
2018-May-17 08:30N 34°27' E 134°31'510.7
2018-May-17 08:00N 34°25' E 134°25'510.6
2018-May-17 07:31N 34°24' E 134°18'611.1
2018-May-17 07:00N 34°25' E 134°12'810.2
2018-May-17 06:10N 34°26' E 134°02'  
Track history (hours):
 
Tides and Currents Weather Stations Pressure Air Temp Water Temp Dewpoint Dewpoint Depression Visibility Wind Speed Wind Dir Waves Ship Positions

Nisshin Maru

Last reported at 2018-May-17 16:21 UTC. Time now 2018-Aug-14 07:00 UTC.
Position N 33°51' E 134°55'.
Warning: this ship's position is months out of date.

Length 129 m; draft 6.7 m.

Type: Fishing. MMSI: 431683000.

Date/timePositionNaut miles runAvg speedWind from/ knotsBaromVisibWave heightAir tempDewpointWater temp
2018-May-17 16:21N 33°51' E 134°55'4 9.5
2018-May-17 15:56N 33°55' E 134°55'410.0
2018-May-17 15:30N 33°60' E 134°55'5 9.0
2018-May-17 15:01N 34°04' E 134°57'5 9.6
2018-May-17 14:31N 34°09' E 134°57'4 8.9
2018-May-17 14:00N 34°13' E 134°58'5 9.7
2018-May-17 13:30N 34°18' E 134°58'4 8.7
2018-May-17 13:00N 34°22' E 134°60'510.6
2018-May-17 12:30N 34°27' E 135°01'510.6
2018-May-17 12:00N 34°32' E 135°03'4 7.6
2018-May-17 11:30N 34°36' E 135°02'3 5.8
2018-May-17 11:00N 34°37' E 134°59'5 9.0
2018-May-17 10:30N 34°35' E 134°54'5 9.7
2018-May-17 10:01N 34°33' E 134°49'510.2
2018-May-17 09:29N 34°31' E 134°43'510.6
2018-May-17 09:00N 34°29' E 134°37'611.1
2018-May-17 08:30N 34°27' E 134°31'510.7
2018-May-17 08:00N 34°25' E 134°25'510.6
2018-May-17 07:31N 34°24' E 134°18'611.1
2018-May-17 07:00N 34°25' E 134°12'810.2
2018-May-17 06:10N 34°26' E 134°02'  

Dump ship's entire track history